Time;durP1;ratioP1;P1;durP2;ratioP2;P2;SDS_P1;SDS_P2;PMS_P1;PMS_P2;Temp;Humidity;BMP_temperature;BMP_pressure;BME280_temperature;BME280_humidity;BME280_pressure;Samples;Min_cycle;Max_cycle;Signal;HPM_P1;HPM_P2
2023/10/13 00:00:25;;;;;;;0.00;0.00;;;;;;;14.47;78.53;100990.69;15471684;28;20039;-56
2023/10/13 00:07:56;;;;;;;0.05;0.05;;;;;;;14.37;79.19;100984.22;15430364;28;20043;-55
2023/10/13 00:15:38;;;;;;;0.13;0.13;;;;;;;14.23;79.67;100978.16;15430616;28;20394;-54
2023/10/13 00:23:12;;;;;;;;;;;;;;;14.28;79.62;100971.03;15457927;28;20043;-53
2023/10/13 00:30:51;;;;;;;0.00;0.00;;;;;;;14.41;79.46;100982.66;15438868;28;19922;-52
2023/10/13 00:38:24;;;;;;;0.35;0.35;;;;;;;14.06;80.15;100964.47;15443886;28;20082;-50
2023/10/13 00:46:07;;;;;;;1.05;0.45;;;;;;;13.87;81.46;100960.97;15441053;28;20382;-51
2023/10/13 00:53:41;;;;;;;0.32;0.32;;;;;;;14.20;80.73;100957.00;15429906;28;20050;-53
2023/10/13 01:01:18;;;;;;;0.00;0.00;;;;;;;14.46;79.33;100942.31;15426462;28;20062;-51
2023/10/13 01:08:59;;;;;;;0.00;0.00;;;;;;;14.67;78.08;100947.19;15457603;28;20533;-53
2023/10/13 01:16:35;;;;;;;0.70;0.57;;;;;;;14.47;78.84;100965.56;15438510;28;20662;-49
2023/10/13 01:24:13;;;;;;;0.00;0.00;;;;;;;14.37;79.28;100957.19;15417619;28;20053;-55
2023/10/13 01:31:47;;;;;;;0.25;0.25;;;;;;;14.80;78.11;100951.56;15426110;28;20073;-51
2023/10/13 01:39:26;;;;;;;0.13;0.13;;;;;;;14.90;77.43;100951.00;15454534;28;20047;-52
2023/10/13 01:47:06;;;;;;;0.22;0.22;;;;;;;14.74;78.05;100950.63;15445718;23;20054;-50
2023/10/13 01:54:40;;;;;;;0.00;0.00;;;;;;;14.66;78.46;100934.75;15404868;28;20581;-50
2023/10/13 02:02:15;;;;;;;1.40;0.88;;;;;;;14.40;80.19;100916.22;15358691;28;20213;-51
2023/10/13 02:09:49;;;;;;;0.05;0.05;;;;;;;14.61;79.27;100931.94;15363658;28;20035;-52
2023/10/13 02:17:23;;;;;;;1.38;1.10;;;;;;;14.49;79.81;100941.88;15356003;29;20051;-54
2023/10/13 02:25:05;;;;;;;0.10;0.10;;;;;;;14.69;79.33;100931.59;15369632;29;20043;-51
2023/10/13 02:32:40;;;;;;;0.00;0.00;;;;;;;15.07;78.11;100922.22;15368148;28;20039;-50
2023/10/13 02:40:15;;;;;;;0.10;0.10;;;;;;;14.93;78.39;100913.53;15376255;28;20134;-50
2023/10/13 02:48:09;;;;;;;0.30;0.30;;;;;;;15.03;78.52;100902.94;15367724;28;20153;-49
2023/10/13 02:55:52;;;;;;;0.00;0.00;;;;;;;14.87;78.69;100890.09;15377337;28;20126;-49
2023/10/13 03:03:29;;;;;;;0.47;0.47;;;;;;;14.67;79.95;100876.94;15371877;29;20035;-49
2023/10/13 03:11:05;;;;;;;1.75;0.73;;;;;;;14.75;79.52;100865.81;15379159;28;20496;-51
2023/10/13 03:18:39;;;;;;;0.10;0.10;;;;;;;14.70;79.53;100849.47;15362892;29;20047;-50
2023/10/13 03:26:16;;;;;;;0.30;0.30;;;;;;;14.74;80.10;100849.84;15376673;28;20035;-50
2023/10/13 03:33:56;;;;;;;1.38;0.68;;;;;;;15.10;78.49;100842.50;15370579;29;20043;-50
2023/10/13 03:41:37;;;;;;;0.00;0.00;;;;;;;15.13;77.91;100826.63;15377010;29;20043;-49
2023/10/13 03:49:12;;;;;;;0.20;0.20;;;;;;;15.13;78.34;100821.22;15377916;28;20051;-49
2023/10/13 03:56:52;;;;;;;0.57;0.43;;;;;;;15.01;78.82;100821.25;15358253;28;20379;-49
2023/10/13 04:04:42;;;;;;;8.98;1.20;;;;;;;14.87;79.61;100805.50;15369137;28;20050;-50
2023/10/13 04:13:49;;;;;;;1.77;1.25;;;;;;;14.86;80.17;100799.28;15350686;29;20151;-50
2023/10/13 04:20:38;;;;;;;1.77;1.35;;;;;;;14.77;81.17;100806.94;15368090;28;20035;-52
2023/10/13 04:28:34;;;;;;;9.68;1.83;;;;;;;15.16;79.93;100785.63;15373897;28;20051;-49
2023/10/13 04:36:16;;;;;;;2.85;1.95;;;;;;;15.30;78.86;100768.03;15374167;28;20063;-50
2023/10/13 04:43:57;;;;;;;0.90;0.80;;;;;;;14.91;81.56;100764.25;15378912;28;20039;-49
2023/10/13 04:51:58;;;;;;;1.40;1.30;;;;;;;15.19;80.30;100747.25;15364717;28;20090;-51
2023/10/13 05:00:52;;;;;;;0.57;0.57;;;;;;;14.92;81.59;100751.56;15368057;28;20391;-48
2023/10/13 05:47:01;;;;;;;0.85;0.85;;;;;;;15.12;81.34;100753.88;15369022;28;20039;-50
2023/10/13 06:33:55;;;;;;;2.53;1.35;;;;;;;15.16;82.01;100701.78;15376158;28;20047;-50
2023/10/13 06:41:31;;;;;;;0.20;0.20;;;;;;;15.45;82.16;100718.81;15358515;29;20510;-46
2023/10/13 06:49:05;;;;;;;0.00;0.00;;;;;;;16.26;79.91;100724.78;15379578;28;20418;-47
2023/10/13 06:56:40;;;;;;;1.10;0.75;;;;;;;16.50;78.82;100716.44;15374882;29;20058;-47
2023/10/13 07:04:15;;;;;;;0.10;0.10;;;;;;;16.78;78.13;100729.03;15374269;29;20450;-51
2023/10/13 07:11:52;;;;;;;0.43;0.35;;;;;;;16.43;79.53;100716.63;15378526;28;20047;-53
2023/10/13 07:19:28;;;;;;;0.05;0.05;;;;;;;16.76;78.04;100706.81;15374122;28;20110;-53
2023/10/13 07:27:05;;;;;;;1.20;1.10;;;;;;;16.72;78.08;100717.31;15376987;28;20047;-48
2023/10/13 07:34:48;;;;;;;1.13;0.60;;;;;;;16.91;77.41;100712.41;15375276;29;20047;-50
2023/10/13 07:42:22;;;;;;;0.10;0.10;;;;;;;17.07;77.33;100702.56;15376499;29;20135;-51
2023/10/13 07:49:56;;;;;;;0.38;0.32;;;;;;;16.61;79.38;100701.97;15374702;28;20565;-51
2023/10/13 07:57:30;;;;;;;0.65;0.60;;;;;;;17.44;76.32;100694.56;15403808;28;20081;-48
2023/10/13 08:05:14;;;;;;;0.93;0.50;;;;;;;17.07;77.95;100678.16;15387588;28;20094;-51
2023/10/13 08:12:47;;;;;;;0.45;0.45;;;;;;;17.18;77.41;100677.19;15381311;28;20046;-52
2023/10/13 08:20:22;;;;;;;0.80;0.35;;;;;;;16.88;78.69;100671.41;15358341;28;20099;-51
2023/10/13 08:36:17;;;;;;;0.20;0.20;;;;;;;17.27;78.11;100647.72;15361887;29;20371;-48
2023/10/13 08:43:51;;;;;;;6.05;2.05;;;;;;;17.23;78.60;100631.13;15362039;28;20126;-48
2023/10/13 08:51:43;;;;;;;0.10;0.10;;;;;;;17.28;78.44;100646.63;15370429;28;20453;-51
2023/10/13 08:59:22;;;;;;;0.07;0.07;;;;;;;17.56;77.30;100630.06;15369682;28;20055;-48
2023/10/13 09:07:15;;;;;;;0.65;0.52;;;;;;;17.29;77.98;100630.09;15366339;29;20047;-51
2023/10/13 09:14:57;;;;;;;0.00;0.00;;;;;;;17.45;78.35;100611.25;15371769;29;20050;-50
2023/10/13 09:22:36;;;;;;;2.00;0.77;;;;;;;17.68;77.42;100600.03;15372692;29;20047;-53
2023/10/13 09:30:18;;;;;;;1.27;0.43;;;;;;;17.38;78.43;100599.78;15371992;28;20062;-50
2023/10/13 09:38:02;;;;;;;0.43;0.43;;;;;;;17.69;78.02;100579.94;15371434;28;20126;-49
2023/10/13 09:45:39;;;;;;;0.43;0.43;;;;;;;18.11;76.74;100570.97;15368908;28;20090;-48
2023/10/13 09:53:17;;;;;;;0.93;0.63;;;;;;;17.73;77.65;100558.53;15350904;28;20422;-47
2023/10/13 10:01:07;;;;;;;0.80;0.43;;;;;;;17.90;78.15;100539.34;15319955;28;20094;-50
2023/10/13 10:08:50;;;;;;;1.17;0.88;;;;;;;18.08;78.00;100536.19;15363057;28;20058;-49
2023/10/13 10:16:41;;;;;;;0.25;0.22;;;;;;;18.38;76.79;100534.69;15319824;28;20373;-48
2023/10/13 10:24:29;;;;;;;0.32;0.32;;;;;;;18.12;77.92;100523.72;15313115;29;20047;-47
2023/10/13 10:32:14;;;;;;;0.00;0.00;;;;;;;18.03;79.11;100511.72;15311091;29;20478;-50
2023/10/13 10:39:49;;;;;;;0.10;0.10;;;;;;;18.03;79.91;100511.72;15320960;29;20040;-47
2023/10/13 10:47:31;;;;;;;1.58;1.02;;;;;;;18.02;80.23;100505.47;15321286;28;20047;-48
2023/10/13 10:55:08;;;;;;;0.43;0.43;;;;;;;18.19;80.34;100471.88;15319663;29;20063;-49
2023/10/13 11:02:42;;;;;;;0.20;0.20;;;;;;;18.22;79.87;100466.69;15320481;29;20046;-49
2023/10/13 11:10:26;;;;;;;0.95;0.63;;;;;;;18.36;79.65;100448.78;15327121;28;20040;-53
2023/10/13 11:18:00;;;;;;;0.35;0.35;;;;;;;18.39;79.56;100449.34;15335490;29;20491;-50
2023/10/13 11:25:37;;;;;;;0.10;0.10;;;;;;;18.45;79.36;100445.56;15332190;29;20118;-52
2023/10/13 11:33:17;;;;;;;0.10;0.10;;;;;;;18.61;78.14;100426.28;15326217;29;20089;-51
2023/10/13 11:41:12;;;;;;;0.20;0.20;;;;;;;18.46;78.73;100414.56;15325072;29;20050;-51
2023/10/13 11:48:47;;;;;;;0.00;0.00;;;;;;;18.85;76.98;100404.81;15348548;28;20074;-51
2023/10/13 11:56:26;;;;;;;0.75;0.70;;;;;;;19.04;76.58;100387.94;15320463;28;20051;-53
2023/10/13 12:12:00;;;;;;;0.20;0.20;;;;;;;19.37;74.61;100370.97;15326403;28;20095;-52
2023/10/13 12:19:34;;;;;;;0.55;0.20;;;;;;;19.53;74.41;100349.94;15310289;28;20078;-48
2023/10/13 12:27:20;;;;;;;0.47;0.47;;;;;;;19.69;73.49;100341.75;15350400;28;20040;-52
2023/10/13 12:35:17;;;;;;;0.43;0.43;;;;;;;19.72;73.76;100331.09;15360923;28;20039;-50
2023/10/13 12:50:57;;;;;;;0.52;0.40;;;;;;;20.28;71.89;100299.91;15344070;28;20055;-49
2023/10/13 12:58:31;;;;;;;1.50;1.25;;;;;;;20.08;71.66;100293.53;15364847;28;20047;-48
2023/10/13 13:06:07;;;;;;;0.32;0.32;;;;;;;20.45;70.56;100280.41;15362289;28;20102;-55
2023/10/13 13:13:41;;;;;;;0.52;0.50;;;;;;;20.59;69.65;100265.84;15348535;28;20039;-50
2023/10/13 13:21:19;;;;;;;2.00;1.25;;;;;;;21.05;68.65;100259.88;15347792;28;20043;-52
2023/10/13 13:28:55;;;;;;;7.53;1.33;;;;;;;21.01;68.37;100249.84;15358327;28;20058;-54
2023/10/13 13:36:30;;;;;;;5.38;1.35;;;;;;;20.89;68.91;100247.53;15370447;28;20578;-55
2023/10/13 13:44:14;;;;;;;1.65;1.30;;;;;;;20.94;67.99;100238.44;15352378;28;20513;-53
2023/10/13 13:51:51;;;;;;;0.40;0.32;;;;;;;21.38;66.66;100219.09;15450360;23;20052;-50
2023/10/13 13:59:33;;;;;;;0.40;0.40;;;;;;;21.44;66.10;100211.63;15475732;28;20535;-49
2023/10/13 14:07:06;;;;;;;0.10;0.10;;;;;;;21.52;65.52;100197.31;15427980;28;20125;-51
2023/10/13 14:14:47;;;;;;;0.00;0.00;;;;;;;21.47;65.56;100195.47;15434788;28;20042;-49
2023/10/13 14:22:24;;;;;;;0.63;0.43;;;;;;;21.73;64.93;100175.94;15428245;28;20130;-52
2023/10/13 14:29:59;;;;;;;1.40;0.65;;;;;;;21.54;64.04;100174.06;15425519;28;20038;-54
2023/10/13 14:37:32;;;;;;;0.55;0.55;;;;;;;21.59;64.06;100165.78;15439121;28;20050;-52
2023/10/13 14:45:12;;;;;;;0.43;0.43;;;;;;;21.21;64.42;100145.03;15429926;28;20045;-51
2023/10/13 14:52:45;;;;;;;0.88;0.47;;;;;;;21.30;63.92;100151.47;15431985;28;20404;-48
2023/10/13 15:00:25;;;;;;;0.25;0.25;;;;;;;21.28;63.64;100150.97;15435298;28;20387;-47
2023/10/13 15:07:59;;;;;;;0.30;0.30;;;;;;;21.42;63.15;100140.13;15436680;28;20517;-47
2023/10/13 15:15:35;;;;;;;1.05;0.40;;;;;;;21.33;63.38;100143.53;15436780;28;20065;-46
2023/10/13 15:23:14;;;;;;;0.10;0.10;;;;;;;21.28;63.58;100137.31;15437235;28;20504;-53
2023/10/13 15:30:56;;;;;;;6.80;0.80;;;;;;;21.27;62.92;100130.22;15433380;28;20074;-50
2023/10/13 15:38:32;;;;;;;1.35;1.10;;;;;;;21.06;62.80;100121.53;15425977;28;20102;-47
2023/10/13 15:46:17;;;;;;;0.13;0.13;;;;;;;20.98;62.97;100103.06;15431074;28;20043;-49
2023/10/13 15:53:51;;;;;;;0.28;0.28;;;;;;;20.91;62.62;100097.19;15432904;28;20421;-47
2023/10/13 16:01:28;;;;;;;0.22;0.22;;;;;;;21.05;62.02;100085.25;15428477;28;20410;-44
2023/10/13 16:09:01;;;;;;;1.13;0.75;;;;;;;21.17;61.46;100084.81;15434869;28;20058;-46
2023/10/13 16:16:36;;;;;;;1.98;0.80;;;;;;;20.79;61.65;100068.41;15431444;28;20035;-48
2023/10/13 16:24:11;;;;;;;0.25;0.10;;;;;;;20.83;61.90;100069.44;15432751;28;20078;-50
2023/10/13 16:31:46;;;;;;;0.10;0.05;;;;;;;20.81;60.65;100033.50;15424661;28;20113;-49
2023/10/13 16:39:22;;;;;;;9.32;2.30;;;;;;;20.87;60.50;100048.66;15429400;28;20066;-47
2023/10/13 16:47:00;;;;;;;0.75;0.75;;;;;;;21.02;59.53;100052.28;15423487;28;20047;-46
2023/10/13 16:54:36;;;;;;;1.27;0.63;;;;;;;20.92;59.67;100052.44;15427295;28;20109;-49
2023/10/13 17:02:14;;;;;;;0.40;0.40;;;;;;;21.04;58.66;100050.06;15427588;28;20035;-54
2023/10/13 17:09:47;;;;;;;0.32;0.32;;;;;;;21.02;58.79;100053.06;15420065;28;20512;-45
2023/10/13 17:17:23;;;;;;;0.10;0.10;;;;;;;21.03;58.41;100052.00;15422156;28;20101;-47
2023/10/13 17:24:56;;;;;;;3.15;0.68;;;;;;;21.03;57.07;100018.41;15414887;28;20039;-45
2023/10/13 17:32:32;;;;;;;0.20;0.20;;;;;;;21.31;56.43;100052.94;15417084;28;20980;-48
2023/10/13 17:40:07;;;;;;;0.40;0.40;;;;;;;21.16;58.50;100055.88;15423173;28;20046;-49
2023/10/13 17:47:43;;;;;;;0.22;0.22;;;;;;;21.02;57.78;100053.06;15423185;28;20053;-52
2023/10/13 17:55:17;;;;;;;0.30;0.30;;;;;;;20.80;58.62;100040.06;15421517;28;20065;-45
2023/10/13 18:02:54;;;;;;;1.10;0.88;;;;;;;20.85;57.86;100042.72;15427685;28;20565;-49
2023/10/13 18:10:30;;;;;;;0.20;0.17;;;;;;;21.01;57.31;100029.63;15437796;28;20083;-46
2023/10/13 18:18:08;;;;;;;1.45;0.28;;;;;;;21.02;57.02;100035.91;15433962;28;20043;-52
2023/10/13 18:25:45;;;;;;;16.98;0.68;;;;;;;20.75;58.06;100026.50;15432710;28;20030;-45
2023/10/13 18:33:20;;;;;;;1.20;0.80;;;;;;;20.78;57.92;100025.88;15421255;28;20109;-48
2023/10/13 18:40:57;;;;;;;0.75;0.28;;;;;;;20.84;57.10;99996.63;15433391;28;20039;-53
2023/10/13 18:48:32;;;;;;;2.83;0.90;;;;;;;21.03;56.49;100026.59;15446904;28;20042;-46
2023/10/13 18:56:09;;;;;;;11.40;2.05;;;;;;;21.03;56.16;100016.53;15423605;28;20528;-46
2023/10/13 19:03:48;;;;;;;0.60;0.40;;;;;;;20.97;55.96;100004.03;15424780;28;20050;-48
2023/10/13 19:11:23;;;;;;;0.13;0.13;;;;;;;21.01;55.74;99988.72;15422523;28;20053;-50
2023/10/13 19:19:03;;;;;;;0.63;0.30;;;;;;;21.08;54.74;99997.34;15422953;28;20134;-47
2023/10/13 19:26:37;;;;;;;0.60;0.60;;;;;;;21.07;54.71;99981.25;15428012;28;20031;-50
2023/10/13 19:34:17;;;;;;;0.30;0.13;;;;;;;20.97;54.41;99978.69;15427175;28;20066;-44
2023/10/13 19:41:51;;;;;;;1.92;1.10;;;;;;;21.15;53.58;99975.09;15423709;28;20074;-47
2023/10/13 19:49:25;;;;;;;0.30;0.20;;;;;;;20.99;53.80;99968.31;15424024;28;20043;-46
2023/10/13 19:56:59;;;;;;;0.70;0.40;;;;;;;20.97;53.95;99968.56;15414855;28;20054;-46
2023/10/13 20:04:33;;;;;;;0.85;0.35;;;;;;;20.88;53.95;99968.44;15421312;28;20058;-46
2023/10/13 20:12:07;;;;;;;0.90;0.30;;;;;;;20.78;54.44;99960.44;15419213;28;20117;-46
2023/10/13 20:19:41;;;;;;;0.80;0.73;;;;;;;20.88;54.32;99948.53;15408712;28;20142;-47
2023/10/13 20:27:17;;;;;;;0.10;0.10;;;;;;;20.66;54.91;99943.72;15420207;28;20557;-48
2023/10/13 20:34:52;;;;;;;3.13;1.58;;;;;;;20.90;54.29;99927.25;15422917;28;20054;-47
2023/10/13 20:42:25;;;;;;;0.38;0.38;;;;;;;20.65;54.64;99920.28;15421656;28;20519;-46
2023/10/13 20:50:01;;;;;;;5.05;0.65;;;;;;;20.72;54.45;99918.00;15414272;28;20519;-47
2023/10/13 20:57:34;;;;;;;3.20;1.08;;;;;;;20.51;54.66;99868.41;15425683;28;20066;-49
2023/10/13 21:05:12;;;;;;;0.47;0.47;;;;;;;20.83;53.87;99894.88;15411468;28;20069;-47
2023/10/13 21:12:50;;;;;;;0.10;0.10;;;;;;;20.59;54.61;99877.84;15416202;28;20054;-50
2023/10/13 21:20:25;;;;;;;0.00;0.00;;;;;;;20.84;53.52;99863.78;15402805;28;20830;-52
2023/10/13 21:28:01;;;;;;;5.53;1.13;;;;;;;20.76;53.53;99836.38;15401205;28;20054;-47
2023/10/13 21:35:39;;;;;;;0.32;0.30;;;;;;;20.69;53.56;99846.88;15406255;28;20049;-50
2023/10/13 21:43:15;;;;;;;2.92;0.35;;;;;;;20.56;53.63;99827.47;15414300;28;20066;-52
2023/10/13 21:50:49;;;;;;;1.17;0.63;;;;;;;20.51;54.02;99824.00;15389485;28;20047;-47
2023/10/13 21:58:26;;;;;;;0.65;0.43;;;;;;;20.77;53.58;99808.81;15418769;28;20055;-49
2023/10/13 22:06:00;;;;;;;3.10;0.55;;;;;;;20.64;53.99;99795.94;15448066;23;20113;-47
2023/10/13 22:13:36;;;;;;;0.17;0.17;;;;;;;20.54;54.01;99777.06;15428186;28;20121;-48
2023/10/13 22:21:12;;;;;;;1.10;0.90;;;;;;;20.32;54.39;99755.84;15419870;28;20105;-53
2023/10/13 22:28:47;;;;;;;2.15;0.68;;;;;;;20.36;54.24;99735.09;15416772;28;20078;-54
2023/10/13 22:36:22;;;;;;;0.88;0.25;;;;;;;20.65;53.16;99721.22;15400267;28;20067;-54
2023/10/13 22:43:57;;;;;;;0.03;0.03;;;;;;;20.64;53.06;99708.69;15408052;28;20161;-50
2023/10/13 22:51:31;;;;;;;1.55;0.30;;;;;;;20.45;53.23;99705.22;15427959;28;20143;-53
2023/10/13 22:59:06;;;;;;;3.95;0.90;;;;;;;20.70;52.68;99709.41;15436472;28;20488;-51
2023/10/13 23:06:45;;;;;;;0.57;0.52;;;;;;;20.62;52.68;99717.19;15417944;28;20062;-50
2023/10/13 23:14:21;;;;;;;0.10;0.10;;;;;;;20.45;53.52;99719.66;15433034;28;20039;-50
2023/10/13 23:21:59;;;;;;;0.30;0.30;;;;;;;20.61;53.33;99723.75;15432928;28;20062;-50
2023/10/13 23:29:35;;;;;;;0.38;0.30;;;;;;;20.47;53.50;99698.41;15433323;28;20201;-54
2023/10/13 23:37:11;;;;;;;0.75;0.63;;;;;;;20.92;52.84;99706.78;15432279;28;20605;-53
2023/10/13 23:44:46;;;;;;;0.20;0.20;;;;;;;20.71;53.57;99698.22;15428508;28;20035;-54
2023/10/13 23:52:23;;;;;;;0.20;0.20;;;;;;;20.14;55.11;99689.41;15430175;28;20046;-54
2023/10/13 23:59:56;;;;;;;0.00;0.00;;;;;;;20.33;55.77;99705.69;15422434;28;20086;-48
